Rowayton, Connecticut
Current Conditions -  °F | °C
As of 12:56 PM on Monday 22 Dec 2014 (Local Time) from KHPN Reporting Station
Broken Clouds Broken Clouds  
Wind Chill: 38°   Ceiling: 2000
Heat Index: 42°   Visibility: 10mi
Dew Point: 35°   Wind: 6mph
Humidity: 76%   Direction: 80°E
Pressure: 30.24"   Gusts: NA
Location:  41.0695°N, 73.4379°W
Report Text: KHPN 221756Z 08005KT 10SM SCT013 BKN020 06/02 A3024 RMK AO2 SLP248 T00560017 10056 20011 58023
Loading
Personal Weather Stations






























Interactive Weather Map New forecast layout! Learn more

10-Day Weather Forecast

Advertisements
Track Severe Weather on mobile